Time,TemperatureF,DewpointF,PressureIn,WindDirection,WindDirectionDegrees,WindSpeedMPH,WindSpeedGustMPH,Humidity,HourlyPrecipIn,Conditions,Clouds,dailyrainin,SolarRadiationWatts/m^2,SoftwareType,DateUTC
2013-11-08 00:01:00,34.4,30.9,30.26,West,260,8.1,8.1,87,0.00,CLR,,0.00,0.0,WeatherDisplay:10.37,2013-11-08 05:01:00,
2013-11-08 00:03:00,34.3,30.8,30.26,West,278,11.5,11.5,87,0.00,CLR,,0.00,0.0,WeatherDisplay:10.37,2013-11-08 05:03:00,
2013-11-08 00:08:00,34.2,30.7,30.26,WSW,257,8.1,8.1,87,0.00,CLR,,0.00,0.0,WeatherDisplay:10.37,2013-11-08 05:08:00,
2013-11-08 00:13:00,34.0,30.8,30.26,SW,229,8.1,8.1,88,0.00,CLR,,0.00,0.0,WeatherDisplay:10.37,2013-11-08 05:13:00,
2013-11-08 00:18:00,33.7,30.5,30.26,West,263,8.1,8.1,88,0.00,CLR,,0.00,0.0,WeatherDisplay:10.37,2013-11-08 05:18:00,
2013-11-08 00:23:00,33.6,30.4,30.26,West,262,9.0,9.0,88,0.00,CLR,,0.00,0.0,WeatherDisplay:10.37,2013-11-08 05:23:00,
2013-11-08 00:28:00,33.4,30.2,30.26,WSW,252,10.0,10.0,88,0.00,CLR,,0.00,0.0,WeatherDisplay:10.37,2013-11-08 05:28:00,
2013-11-08 00:33:00,33.3,30.4,30.26,West,269,11.5,11.5,89,0.00,CLR,,0.00,0.0,WeatherDisplay:10.37,2013-11-08 05:33:00,
2013-11-08 00:38:00,33.0,30.1,30.26,West,263,10.4,10.4,89,0.00,CLR,,0.00,0.0,WeatherDisplay:10.37,2013-11-08 05:38:00,
2013-11-08 00:43:00,32.8,29.9,30.26,WSW,254,9.2,9.2,89,0.00,CLR,,0.00,0.0,WeatherDisplay:10.37,2013-11-08 05:43:00,
2013-11-08 01:06:00,32.0,29.7,30.26,WSW,255,5.0,8.0,91,0.00,,,0.00,0.0,WeatherDisplay:10.37,2013-11-08 06:06:00,
2013-11-08 01:11:00,31.7,29.4,30.26,WSW,244,8.1,8.1,91,0.00,,,0.00,0.0,WeatherDisplay:10.37,2013-11-08 06:11:00,
2013-11-08 01:16:00,31.6,29.3,30.26,WSW,240,8.1,8.1,91,0.00,,,0.00,0.0,WeatherDisplay:10.37,2013-11-08 06:16:00,
2013-11-08 01:21:00,31.5,29.4,30.26,SW,224,8.1,8.1,92,0.00,,,0.00,0.0,WeatherDisplay:10.37,2013-11-08 06:21:00,
2013-11-08 01:26:00,31.4,29.3,30.26,WSW,243,6.9,6.9,92,0.00,,,0.00,0.0,WeatherDisplay:10.37,2013-11-08 06:26:00,
2013-11-08 01:31:00,31.2,29.1,30.26,SW,233,6.9,6.9,92,0.00,,,0.00,0.0,WeatherDisplay:10.37,2013-11-08 06:31:00,
2013-11-08 01:45:00,31.0,28.9,30.26,SW,232,9.2,9.2,92,0.00,,,0.00,0.0,WeatherDisplay:10.37,2013-11-08 06:45:00,
2013-11-08 01:50:00,30.8,29.0,30.26,SW,234,5.0,5.0,93,0.00,,,0.00,0.0,WeatherDisplay:10.37,2013-11-08 06:50:00,
2013-11-08 01:55:00,30.7,28.9,30.26,WSW,246,5.8,5.8,93,0.00,,,0.00,0.0,WeatherDisplay:10.37,2013-11-08 06:55:00,
2013-11-08 02:00:00,30.6,28.8,30.26,WSW,239,5.8,5.8,93,0.00,,,0.00,0.0,WeatherDisplay:10.37,2013-11-08 07:00:00,
2013-11-08 02:05:00,30.6,28.8,30.26,SW,235,6.9,6.9,93,0.00,CLR,,0.00,0.0,WeatherDisplay:10.37,2013-11-08 07:05:00,
2013-11-08 02:10:00,30.7,28.9,30.26,SW,234,10.4,10.4,93,0.00,CLR,,0.00,0.0,WeatherDisplay:10.37,2013-11-08 07:10:00,
2013-11-08 02:15:00,30.6,28.8,30.26,SW,232,5.8,5.8,93,0.00,CLR,,0.00,0.0,WeatherDisplay:10.37,2013-11-08 07:15:00,
2013-11-08 02:20:00,30.5,28.7,30.26,SW,233,8.1,8.1,93,0.00,CLR,,0.00,0.0,WeatherDisplay:10.37,2013-11-08 07:20:00,
2013-11-08 02:25:00,30.5,28.7,30.26,WSW,250,9.2,9.2,93,0.00,CLR,,0.00,0.0,WeatherDisplay:10.37,2013-11-08 07:25:00,
2013-11-08 02:30:00,30.4,28.6,30.26,WSW,238,9.2,9.2,93,0.00,CLR,,0.00,0.0,WeatherDisplay:10.37,2013-11-08 07:30:00,
2013-11-08 02:35:00,30.4,28.6,30.26,SW,234,8.1,8.1,93,0.00,CLR,,0.00,0.0,WeatherDisplay:10.37,2013-11-08 07:35:00,
2013-11-08 02:40:00,30.5,28.7,30.26,SW,232,8.0,8.0,93,0.00,CLR,,0.00,0.0,WeatherDisplay:10.37,2013-11-08 07:40:00,
2013-11-08 02:45:00,30.5,28.7,30.26,SW,232,9.2,9.2,93,0.00,CLR,,0.00,0.0,WeatherDisplay:10.37,2013-11-08 07:45:00,
2013-11-08 02:50:00,30.4,28.6,30.26,SW,231,6.0,6.0,93,0.00,CLR,,0.00,0.0,WeatherDisplay:10.37,2013-11-08 07:50:00,
2013-11-08 02:55:00,30.3,28.5,30.26,SW,234,4.6,4.6,93,0.00,CLR,,0.00,0.0,WeatherDisplay:10.37,2013-11-08 07:55:00,
2013-11-08 03:00:00,30.2,28.4,30.27,SW,232,5.0,5.0,93,0.00,CLR,,0.00,0.0,WeatherDisplay:10.37,2013-11-08 08:00:00,
2013-11-08 03:05:00,30.1,28.3,30.27,WSW,241,6.9,6.9,93,0.00,,,0.00,0.0,WeatherDisplay:10.37,2013-11-08 08:05:00,
2013-11-08 03:10:00,30.1,28.3,30.27,WSW,246,4.6,4.6,93,0.00,,,0.00,0.0,WeatherDisplay:10.37,2013-11-08 08:10:00,
2013-11-08 03:15:00,30.1,28.3,30.27,WSW,250,4.6,4.6,93,0.00,,,0.00,0.0,WeatherDisplay:10.37,2013-11-08 08:15:00,
2013-11-08 03:20:00,29.9,28.1,30.27,WSW,240,5.0,5.0,93,0.00,,,0.00,0.0,WeatherDisplay:10.37,2013-11-08 08:20:00,
2013-11-08 03:25:00,29.9,28.1,30.27,WSW,240,9.2,9.2,93,0.00,,,0.00,0.0,WeatherDisplay:10.37,2013-11-08 08:25:00,
2013-11-08 03:30:00,29.9,28.1,30.27,SW,234,7.0,7.0,93,0.00,,,0.00,0.0,WeatherDisplay:10.37,2013-11-08 08:30:00,
2013-11-08 03:35:00,29.9,28.1,30.27,SW,229,8.1,8.1,93,0.00,,,0.00,0.0,WeatherDisplay:10.37,2013-11-08 08:35:00,
2013-11-08 03:40:00,30.0,28.2,30.27,SW,232,8.1,8.1,93,0.00,,,0.00,0.0,WeatherDisplay:10.37,2013-11-08 08:40:00,
2013-11-08 03:45:00,30.1,28.3,30.27,WSW,239,5.8,5.8,93,0.00,,,0.00,0.0,WeatherDisplay:10.37,2013-11-08 08:45:00,
2013-11-08 03:50:00,30.1,28.3,30.27,WSW,248,3.5,3.5,93,0.00,,,0.00,0.0,WeatherDisplay:10.37,2013-11-08 08:50:00,
2013-11-08 03:55:00,30.0,28.2,30.27,WSW,239,5.0,5.0,93,0.00,,,0.00,0.0,WeatherDisplay:10.37,2013-11-08 08:55:00,
2013-11-08 04:00:00,30.0,28.2,30.27,West,261,4.0,4.0,93,0.00,,,0.00,0.0,WeatherDisplay:10.37,2013-11-08 09:00:00,
2013-11-08 04:05:00,30.0,28.2,30.27,West,263,4.0,4.8,93,0.00,,,0.00,0.0,WeatherDisplay:10.37,2013-11-08 09:05:00,
2013-11-08 04:10:00,30.2,28.4,30.27,WSW,256,7.0,7.0,93,0.00,,,0.00,0.0,WeatherDisplay:10.37,2013-11-08 09:10:00,
2013-11-08 04:15:00,30.2,28.4,30.27,WSW,257,9.2,9.2,93,0.00,,,0.00,0.0,WeatherDisplay:10.37,2013-11-08 09:15:00,
2013-11-08 04:20:00,30.3,28.5,30.27,West,263,7.0,7.0,93,0.00,,,0.00,0.0,WeatherDisplay:10.37,2013-11-08 09:20:00,
2013-11-08 04:25:00,30.4,28.6,30.27,West,266,7.0,7.0,93,0.00,,,0.00,0.0,WeatherDisplay:10.37,2013-11-08 09:25:00,
2013-11-08 04:30:00,30.4,28.6,30.28,WSW,249,8.1,8.1,93,0.00,,,0.00,0.0,WeatherDisplay:10.37,2013-11-08 09:30:00,
2013-11-08 04:35:00,30.4,28.6,30.28,WSW,240,6.0,6.0,93,0.00,,,0.00,0.0,WeatherDisplay:10.37,2013-11-08 09:35:00,
2013-11-08 04:40:00,30.4,28.6,30.28,WSW,250,6.9,6.9,93,0.00,,,0.00,0.0,WeatherDisplay:10.37,2013-11-08 09:40:00,
2013-11-08 04:45:00,30.5,28.7,30.28,West,266,6.9,6.9,93,0.00,,,0.00,0.0,WeatherDisplay:10.37,2013-11-08 09:45:00,
2013-11-08 04:50:00,30.6,28.8,30.28,WSW,248,7.0,7.0,93,0.00,,,0.00,0.0,WeatherDisplay:10.37,2013-11-08 09:50:00,
2013-11-08 04:55:00,30.7,28.9,30.28,WSW,258,5.8,5.8,93,0.00,,,0.00,0.0,WeatherDisplay:10.37,2013-11-08 09:55:00,
2013-11-08 05:00:00,30.7,28.9,30.28,West,267,7.0,7.0,93,0.00,,,0.00,0.0,WeatherDisplay:10.37,2013-11-08 10:00:00,
2013-11-08 05:05:00,30.9,29.1,30.28,West,273,8.1,8.1,93,0.00,CLR,,0.00,0.0,WeatherDisplay:10.37,2013-11-08 10:05:00,
2013-11-08 05:10:00,31.0,28.9,30.28,West,277,7.0,7.0,92,0.00,CLR,,0.00,0.0,WeatherDisplay:10.37,2013-11-08 10:10:00,
2013-11-08 05:15:00,31.0,28.9,30.28,West,263,10.4,10.4,92,0.00,CLR,,0.00,0.0,WeatherDisplay:10.37,2013-11-08 10:15:00,
2013-11-08 05:20:00,31.1,29.0,30.29,West,271,8.1,8.1,92,0.00,CLR,,0.00,0.0,WeatherDisplay:10.37,2013-11-08 10:20:00,
2013-11-08 05:25:00,31.1,29.0,30.29,West,260,8.1,8.1,92,0.00,CLR,,0.00,0.0,WeatherDisplay:10.37,2013-11-08 10:25:00,
2013-11-08 05:30:00,31.1,29.0,30.29,West,275,6.9,6.9,92,0.00,CLR,,0.00,0.0,WeatherDisplay:10.37,2013-11-08 10:30:00,
2013-11-08 05:35:00,31.1,29.0,30.29,WSW,258,6.9,6.9,92,0.00,CLR,,0.00,0.0,WeatherDisplay:10.37,2013-11-08 10:35:00,
2013-11-08 05:40:00,31.1,29.0,30.29,West,261,9.2,9.2,92,0.00,CLR,,0.00,0.0,WeatherDisplay:10.37,2013-11-08 10:40:00,
2013-11-08 05:45:00,31.2,28.9,30.29,West,266,7.0,7.0,91,0.00,CLR,,0.00,0.0,WeatherDisplay:10.37,2013-11-08 10:45:00,
2013-11-08 05:50:00,31.2,28.9,30.29,WSW,251,6.9,6.9,91,0.00,CLR,,0.00,0.0,WeatherDisplay:10.37,2013-11-08 10:50:00,
2013-11-08 05:55:00,31.0,28.7,30.29,WSW,254,6.9,6.9,91,0.00,CLR,,0.00,0.0,WeatherDisplay:10.37,2013-11-08 10:55:00,
2013-11-08 06:00:00,30.8,28.8,30.30,West,265,7.0,7.0,92,0.00,CLR,,0.00,0.0,WeatherDisplay:10.37,2013-11-08 11:00:00,
2013-11-08 06:05:00,30.7,28.7,30.30,WSW,247,5.8,5.8,92,0.00,,,0.00,0.0,WeatherDisplay:10.37,2013-11-08 11:05:00,
2013-11-08 06:10:00,30.3,28.3,30.30,WSW,249,5.0,5.0,92,0.00,,,0.00,0.0,WeatherDisplay:10.37,2013-11-08 11:10:00,
2013-11-08 06:15:00,29.9,27.9,30.30,WSW,246,5.0,5.0,92,0.00,,,0.00,0.0,WeatherDisplay:10.37,2013-11-08 11:15:00,
2013-11-08 06:20:00,29.6,27.8,30.30,WSW,256,3.5,3.5,93,0.00,,,0.00,0.0,WeatherDisplay:10.37,2013-11-08 11:20:00,
2013-11-08 06:25:00,29.6,27.8,30.31,WSW,258,4.6,4.6,93,0.00,,,0.00,0.0,WeatherDisplay:10.37,2013-11-08 11:25:00,
2013-11-08 06:30:00,29.6,27.8,30.31,WSW,256,3.5,3.6,93,0.00,,,0.00,0.0,WeatherDisplay:10.37,2013-11-08 11:30:00,
2013-11-08 06:35:00,29.6,27.8,30.31,WSW,256,4.6,4.6,93,0.00,,,0.00,0.0,WeatherDisplay:10.37,2013-11-08 11:35:00,
2013-11-08 06:40:00,29.7,27.9,30.31,West,265,3.5,3.5,93,0.00,,,0.00,0.0,WeatherDisplay:10.37,2013-11-08 11:40:00,
2013-11-08 06:45:00,29.5,27.7,30.31,WSW,251,3.5,3.5,93,0.00,,,0.00,0.0,WeatherDisplay:10.37,2013-11-08 11:45:00,
2013-11-08 06:50:00,29.3,27.5,30.32,WSW,243,5.8,5.8,93,0.00,,,0.00,0.0,WeatherDisplay:10.37,2013-11-08 11:50:00,
2013-11-08 06:55:00,29.3,27.5,30.32,West,264,7.0,7.0,93,0.00,,,0.00,0.0,WeatherDisplay:10.37,2013-11-08 11:55:00,
2013-11-08 07:00:00,29.2,27.4,30.32,WSW,252,5.0,5.0,93,0.00,,,0.00,0.0,WeatherDisplay:10.37,2013-11-08 12:00:00,
2013-11-08 07:06:00,29.0,27.2,30.33,WSW,251,3.0,7.0,93,0.00,CLR,,0.00,0.0,WeatherDisplay:10.37,2013-11-08 12:06:00,
2013-11-08 07:11:00,29.1,27.3,30.33,WSW,252,3.0,7.0,93,0.00,CLR,,0.00,0.0,WeatherDisplay:10.37,2013-11-08 12:11:00,
2013-11-08 07:15:00,29.3,27.8,30.33,West,259,3.0,7.0,94,0.00,CLR,,0.00,0.0,WeatherDisplay:10.37,2013-11-08 12:15:00,
2013-11-08 07:21:00,29.6,28.1,30.33,WSW,255,5.0,5.3,94,0.00,CLR,,0.00,0.0,WeatherDisplay:10.37,2013-11-08 12:21:00,
2013-11-08 07:25:00,29.6,27.8,30.33,WSW,258,3.0,7.0,93,0.00,CLR,,0.00,5.0,WeatherDisplay:10.37,2013-11-08 12:25:00,
2013-11-08 07:30:00,29.6,27.8,30.33,WSW,255,4.0,4.0,93,0.00,CLR,,0.00,9.0,WeatherDisplay:10.37,2013-11-08 12:30:00,
2013-11-08 07:35:00,29.6,27.8,30.33,West,265,5.0,8.0,93,0.00,CLR,,0.00,12.0,WeatherDisplay:10.37,2013-11-08 12:35:00,
2013-11-08 07:40:00,29.9,28.1,30.33,West,265,6.0,6.0,93,0.00,FEW,,0.00,16.0,WeatherDisplay:10.37,2013-11-08 12:40:00,
2013-11-08 07:45:00,30.1,28.3,30.34,West,259,3.0,6.0,93,0.00,FEW,,0.00,25.0,WeatherDisplay:10.37,2013-11-08 12:45:00,
2013-11-08 07:51:00,30.1,28.3,30.34,WSW,258,5.8,5.8,93,0.00,CLR,,0.00,39.0,WeatherDisplay:10.37,2013-11-08 12:51:00,
2013-11-08 07:55:00,30.1,28.3,30.34,WSW,256,3.0,8.0,93,0.00,CLR,,0.00,51.0,WeatherDisplay:10.37,2013-11-08 12:55:00,
2013-11-08 08:00:00,30.3,28.5,30.34,WSW,256,3.0,8.0,93,0.00,CLR,,0.00,62.0,WeatherDisplay:10.37,2013-11-08 13:00:00,
2013-11-08 08:06:00,30.4,28.6,30.35,WSW,254,4.6,4.6,93,0.00,CLR,,0.00,63.0,WeatherDisplay:10.37,2013-11-08 13:06:00,
2013-11-08 08:11:00,30.6,28.8,30.35,West,271,3.5,3.5,93,0.00,CLR,,0.00,81.0,WeatherDisplay:10.37,2013-11-08 13:11:00,
2013-11-08 08:15:00,31.0,29.2,30.35,West,269,2.0,6.0,93,0.00,CLR,,0.00,107.0,WeatherDisplay:10.37,2013-11-08 13:15:00,
2013-11-08 08:21:00,31.4,29.6,30.35,WSW,252,3.5,3.5,93,0.00,CLR,,0.00,123.0,WeatherDisplay:10.37,2013-11-08 13:21:00,
2013-11-08 08:25:00,31.6,29.5,30.35,WSW,250,5.0,5.0,92,0.00,CLR,,0.00,139.0,WeatherDisplay:10.37,2013-11-08 13:25:00,
2013-11-08 08:31:00,31.6,29.5,30.36,WSW,239,9.2,9.2,92,0.00,CLR,,0.00,153.0,WeatherDisplay:10.37,2013-11-08 13:31:00,
2013-11-08 08:35:00,31.8,29.7,30.36,WSW,248,7.0,9.0,92,0.00,CLR,,0.00,172.0,WeatherDisplay:10.37,2013-11-08 13:35:00,
2013-11-08 08:40:00,32.0,29.9,30.36,WSW,249,6.0,8.0,92,0.00,CLR,,0.00,185.0,WeatherDisplay:10.37,2013-11-08 13:40:00,
2013-11-08 08:46:00,32.2,30.1,30.36,West,262,7.0,7.0,92,0.00,CLR,,0.00,199.0,WeatherDisplay:10.37,2013-11-08 13:46:00,
2013-11-08 08:51:00,32.6,30.5,30.37,WSW,256,5.0,9.0,92,0.00,CLR,,0.00,213.0,WeatherDisplay:10.37,2013-11-08 13:51:00,
2013-11-08 08:56:00,33.0,30.7,30.37,WSW,257,6.0,9.0,91,0.00,CLR,,0.00,227.0,WeatherDisplay:10.37,2013-11-08 13:56:00,
2013-11-08 09:00:00,33.1,30.8,30.37,WSW,256,7.0,12.0,91,0.00,CLR,,0.00,243.0,WeatherDisplay:10.37,2013-11-08 14:00:00,
2013-11-08 09:05:00,33.6,31.5,30.37,WSW,258,6.0,11.0,92,0.00,CLR,,0.00,258.0,WeatherDisplay:10.37,2013-11-08 14:05:00,
2013-11-08 09:11:00,33.8,31.2,30.37,WNW,286,9.2,9.2,90,0.00,CLR,,0.00,269.0,WeatherDisplay:10.37,2013-11-08 14:11:00,
2013-11-08 09:16:00,34.1,31.5,30.37,WNW,290,4.6,6.1,90,0.00,CLR,,0.00,287.0,WeatherDisplay:10.37,2013-11-08 14:16:00,
2013-11-08 09:20:00,34.4,31.8,30.37,West,260,6.0,9.0,90,0.00,CLR,,0.00,299.0,WeatherDisplay:10.37,2013-11-08 14:20:00,
2013-11-08 09:25:00,34.8,32.2,30.37,West,260,3.0,9.0,90,0.00,CLR,,0.00,309.0,WeatherDisplay:10.37,2013-11-08 14:25:00,
2013-11-08 09:31:00,35.1,31.6,30.37,WSW,251,8.1,8.1,87,0.00,CLR,,0.00,320.0,WeatherDisplay:10.37,2013-11-08 14:31:00,
2013-11-08 09:35:00,35.1,31.9,30.37,WSW,251,6.0,9.0,88,0.00,CLR,,0.00,334.0,WeatherDisplay:10.37,2013-11-08 14:35:00,
2013-11-08 09:41:00,35.3,32.4,30.37,WSW,244,9.0,9.0,89,0.00,CLR,,0.00,348.0,WeatherDisplay:10.37,2013-11-08 14:41:00,
2013-11-08 09:46:00,35.4,32.5,30.37,WSW,242,6.0,9.0,89,0.00,CLR,,0.00,362.0,WeatherDisplay:10.37,2013-11-08 14:46:00,
2013-11-08 09:50:00,35.6,32.4,30.38,WSW,237,6.0,9.0,88,0.00,CLR,,0.00,373.0,WeatherDisplay:10.37,2013-11-08 14:50:00,
2013-11-08 09:55:00,35.9,32.7,30.38,WSW,238,5.0,9.0,88,0.00,CLR,,0.00,380.0,WeatherDisplay:10.37,2013-11-08 14:55:00,
2013-11-08 10:00:00,36.5,33.3,30.38,WSW,244,6.0,8.0,88,0.00,CLR,,0.00,392.0,WeatherDisplay:10.37,2013-11-08 15:00:00,
2013-11-08 10:05:00,36.8,33.0,30.38,WSW,256,5.0,8.0,86,0.00,CLR,,0.00,401.0,WeatherDisplay:10.37,2013-11-08 15:05:00,
2013-11-08 10:11:00,37.1,33.0,30.38,SW,236,4.0,4.0,85,0.00,CLR,,0.00,410.0,WeatherDisplay:10.37,2013-11-08 15:11:00,
2013-11-08 10:15:00,37.9,34.1,30.38,West,272,6.0,12.0,86,0.00,CLR,,0.00,424.0,WeatherDisplay:10.37,2013-11-08 15:15:00,
2013-11-08 10:21:00,38.2,33.2,30.38,West,277,8.1,8.1,82,0.00,CLR,,0.00,432.0,WeatherDisplay:10.37,2013-11-08 15:21:00,
2013-11-08 10:26:00,38.2,33.8,30.38,WSW,249,9.2,9.2,84,0.00,CLR,,0.00,441.0,WeatherDisplay:10.37,2013-11-08 15:26:00,
2013-11-08 10:31:00,38.6,33.9,30.38,WSW,243,5.8,5.8,83,0.00,CLR,,0.00,454.0,WeatherDisplay:10.37,2013-11-08 15:31:00,
2013-11-08 10:36:00,38.9,33.9,30.38,WNW,303,8.0,8.0,82,0.00,CLR,,0.00,461.0,WeatherDisplay:10.37,2013-11-08 15:36:00,
2013-11-08 10:40:00,39.3,34.2,30.38,WNW,296,5.0,8.0,82,0.00,CLR,,0.00,475.0,WeatherDisplay:10.37,2013-11-08 15:40:00,
2013-11-08 10:45:00,39.6,33.9,30.38,West,272,1.0,6.0,80,0.00,CLR,,0.00,482.0,WeatherDisplay:10.37,2013-11-08 15:45:00,
2013-11-08 10:51:00,39.9,34.2,30.38,NW,325,2.3,2.3,80,0.00,CLR,,0.00,494.0,WeatherDisplay:10.37,2013-11-08 15:51:00,
2013-11-08 10:55:00,40.2,33.2,30.38,West,278,1.0,7.0,76,0.00,CLR,,0.00,501.0,WeatherDisplay:10.37,2013-11-08 15:55:00,
2013-11-08 11:00:00,40.6,33.6,30.38,NNW,327,3.0,5.0,76,0.00,CLR,,0.00,499.0,WeatherDisplay:10.37,2013-11-08 16:00:00,
2013-11-08 11:05:00,40.7,34.0,30.38,WNW,299,3.0,8.0,77,0.00,CLR,,0.00,512.0,WeatherDisplay:10.37,2013-11-08 16:05:00,
2013-11-08 11:11:00,40.8,33.5,30.38,West,263,8.1,8.1,75,0.00,CLR,,0.00,517.0,WeatherDisplay:10.37,2013-11-08 16:11:00,
2013-11-08 11:15:00,40.7,33.4,30.38,WNW,290,3.0,8.0,75,0.00,CLR,,0.00,522.0,WeatherDisplay:10.37,2013-11-08 16:15:00,
2013-11-08 11:21:00,41.3,34.3,30.38,SSW,213,11.5,11.5,76,0.00,CLR,,0.00,522.0,WeatherDisplay:10.37,2013-11-08 16:21:00,
2013-11-08 11:25:00,41.5,33.9,30.38,West,269,5.0,12.0,74,0.00,CLR,,0.00,534.0,WeatherDisplay:10.37,2013-11-08 16:25:00,
2013-11-08 11:31:00,41.4,33.0,30.37,West,260,4.6,4.6,72,0.00,CLR,,0.00,541.0,WeatherDisplay:10.37,2013-11-08 16:31:00,
2013-11-08 11:35:00,41.3,33.3,30.37,SW,234,5.0,8.0,73,0.00,CLR,,0.00,545.0,WeatherDisplay:10.37,2013-11-08 16:35:00,
2013-11-08 11:41:00,41.5,34.5,30.37,West,259,5.8,5.8,76,0.00,CLR,,0.00,552.0,WeatherDisplay:10.37,2013-11-08 16:41:00,
2013-11-08 11:45:00,42.0,31.5,30.36,West,277,3.0,8.0,66,0.00,CLR,,0.00,545.0,WeatherDisplay:10.37,2013-11-08 16:45:00,
2013-11-08 11:51:00,42.1,32.6,30.36,WNW,303,3.0,7.0,69,0.00,CLR,,0.00,540.0,WeatherDisplay:10.37,2013-11-08 16:51:00,
2013-11-08 11:55:00,42.5,33.8,30.36,WNW,282,7.0,10.0,71,0.00,CLR,,0.00,547.0,WeatherDisplay:10.37,2013-11-08 16:55:00,
2013-11-08 12:00:00,42.4,33.3,30.36,WSW,252,3.0,9.0,70,0.00,CLR,,0.00,534.0,WeatherDisplay:10.37,2013-11-08 17:00:00,
2013-11-08 12:05:00,42.5,33.4,30.36,West,262,5.0,8.0,70,0.00,CLR,,0.00,475.0,WeatherDisplay:10.37,2013-11-08 17:05:00,
2013-11-08 12:11:00,42.8,33.7,30.35,SW,229,3.5,3.5,70,0.00,CLR,,0.00,519.0,WeatherDisplay:10.37,2013-11-08 17:11:00,
2013-11-08 12:15:00,43.1,32.5,30.35,West,261,7.0,9.0,66,0.00,CLR,,0.00,462.0,WeatherDisplay:10.37,2013-11-08 17:15:00,
2013-11-08 12:21:00,43.2,31.4,30.35,West,277,3.0,10.0,63,0.00,CLR,,0.00,454.0,WeatherDisplay:10.37,2013-11-08 17:21:00,
2013-11-08 12:25:00,43.0,31.6,30.35,WNW,288,5.0,7.0,64,0.00,CLR,,0.00,466.0,WeatherDisplay:10.37,2013-11-08 17:25:00,
2013-11-08 12:30:00,43.1,32.1,30.34,WSW,238,1.0,8.0,65,0.00,CLR,,0.00,513.0,WeatherDisplay:10.37,2013-11-08 17:30:00,
2013-11-08 12:36:00,43.3,32.3,30.34,WSW,251,9.2,9.2,65,0.00,CLR,,0.00,557.0,WeatherDisplay:10.37,2013-11-08 17:36:00,
2013-11-08 12:41:00,43.5,30.9,30.34,SW,219,8.1,8.1,61,0.00,CLR,,0.00,547.0,WeatherDisplay:10.37,2013-11-08 17:41:00,
2013-11-08 12:46:00,43.8,32.4,30.34,South,188,9.2,9.2,64,0.00,CLR,,0.00,554.0,WeatherDisplay:10.37,2013-11-08 17:46:00,
2013-11-08 12:51:00,44.2,33.2,30.34,South,184,8.1,8.1,65,0.00,CLR,,0.00,543.0,WeatherDisplay:10.37,2013-11-08 17:51:00,
2013-11-08 12:55:00,44.2,33.2,30.33,SSW,204,5.0,8.0,65,0.00,CLR,,0.00,538.0,WeatherDisplay:10.37,2013-11-08 17:55:00,
2013-11-08 13:00:00,44.3,32.5,30.33,SW,221,5.0,10.0,63,0.00,CLR,,0.00,534.0,WeatherDisplay:10.37,2013-11-08 18:00:00,
2013-11-08 13:05:00,44.3,33.3,30.33,SW,232,6.0,12.0,65,0.00,CLR,,0.00,529.0,WeatherDisplay:10.37,2013-11-08 18:05:00,
2013-11-08 13:11:00,44.5,31.9,30.33,NNW,329,8.1,8.1,61,0.00,CLR,,0.00,526.0,WeatherDisplay:10.37,2013-11-08 18:11:00,
2013-11-08 13:15:00,44.8,33.3,30.32,West,278,6.0,11.0,64,0.00,CLR,,0.00,522.0,WeatherDisplay:10.37,2013-11-08 18:15:00,
2013-11-08 13:21:00,45.0,31.9,30.32,WNW,292,3.0,7.0,60,0.00,CLR,,0.00,517.0,WeatherDisplay:10.37,2013-11-08 18:21:00,
2013-11-08 13:26:00,45.0,32.8,30.32,SW,217,5.0,5.0,62,0.00,CLR,,0.00,503.0,WeatherDisplay:10.37,2013-11-08 18:26:00,
2013-11-08 13:31:00,45.1,32.4,30.32,SW,234,9.2,9.2,61,0.00,CLR,,0.00,508.0,WeatherDisplay:10.37,2013-11-08 18:31:00,
2013-11-08 13:36:00,45.1,32.4,30.31,NW,308,3.5,3.5,61,0.00,CLR,,0.00,287.0,WeatherDisplay:10.37,2013-11-08 18:36:00,
2013-11-08 13:40:00,45.4,33.2,30.31,WSW,237,7.0,12.0,62,0.00,FEW,,0.00,364.0,WeatherDisplay:10.37,2013-11-08 18:40:00,
2013-11-08 13:45:00,45.4,32.7,30.31,SW,217,6.0,12.0,61,0.00,SCT,,0.00,281.0,WeatherDisplay:10.37,2013-11-08 18:45:00,
2013-11-08 13:51:00,45.3,32.6,30.31,WSW,238,5.0,8.0,61,0.00,FEW,,0.00,450.0,WeatherDisplay:10.37,2013-11-08 18:51:00,
2013-11-08 13:55:00,45.5,32.4,30.31,WSW,253,2.0,6.0,60,0.00,FEW,,0.00,355.0,WeatherDisplay:10.37,2013-11-08 18:55:00,
2013-11-08 14:00:00,45.8,32.7,30.31,WSW,254,3.0,10.0,60,0.00,FEW,,0.00,380.0,WeatherDisplay:10.37,2013-11-08 19:00:00,
2013-11-08 14:05:00,46.1,33.0,30.31,WSW,253,6.0,10.0,60,0.00,CLR,,0.00,343.0,WeatherDisplay:10.37,2013-11-08 19:05:00,
2013-11-08 14:10:00,45.9,32.7,30.30,WSW,255,5.0,8.0,60,0.00,FEW,,0.00,302.0,WeatherDisplay:10.37,2013-11-08 19:10:00,
2013-11-08 14:15:00,46.0,32.5,30.30,WSW,245,5.0,12.0,59,0.00,FEW,,0.00,359.0,WeatherDisplay:10.37,2013-11-08 19:15:00,
2013-11-08 14:20:00,46.3,32.3,30.30,WSW,244,7.0,12.0,58,0.00,FEW,,0.00,318.0,WeatherDisplay:10.37,2013-11-08 19:20:00,
2013-11-08 14:25:00,46.2,33.1,30.30,West,262,5.0,8.0,60,0.00,FEW,,0.00,269.0,WeatherDisplay:10.37,2013-11-08 19:25:00,
2013-11-08 14:31:00,46.0,32.9,30.29,WSW,252,6.9,6.9,60,0.00,SCT,,0.00,250.0,WeatherDisplay:10.37,2013-11-08 19:31:00,
2013-11-08 14:35:00,46.1,32.1,30.29,SW,234,8.0,9.0,58,0.00,SCT,,0.00,304.0,WeatherDisplay:10.37,2013-11-08 19:35:00,
2013-11-08 14:40:00,46.1,32.1,30.29,SW,221,2.0,9.0,58,0.00,FEW,,0.00,292.0,WeatherDisplay:10.37,2013-11-08 19:40:00,
2013-11-08 14:45:00,46.2,32.7,30.29,SW,233,2.0,3.0,59,0.00,FEW,,0.00,253.0,WeatherDisplay:10.37,2013-11-08 19:45:00,
2013-11-08 14:51:00,46.4,33.2,30.29,WSW,257,2.0,7.0,60,0.00,FEW,,0.00,311.0,WeatherDisplay:10.37,2013-11-08 19:51:00,
2013-11-08 14:56:00,46.9,33.7,30.29,WSW,252,6.9,6.9,60,0.00,FEW,,0.00,301.0,WeatherDisplay:10.37,2013-11-08 19:56:00,
2013-11-08 15:00:00,47.4,33.3,30.28,SW,231,6.0,9.0,58,0.00,CLR,,0.00,390.0,WeatherDisplay:10.37,2013-11-08 20:00:00,
2013-11-08 15:05:00,47.5,33.0,30.29,SW,215,1.0,6.0,57,0.00,CLR,,0.00,381.0,WeatherDisplay:10.37,2013-11-08 20:05:00,
2013-11-08 15:10:00,47.9,32.9,30.29,SSW,208,5.0,10.0,56,0.00,CLR,,0.00,281.0,WeatherDisplay:10.37,2013-11-08 20:10:00,
2013-11-08 15:15:00,48.2,33.2,30.28,SSW,209,8.0,9.0,56,0.00,CLR,,0.00,214.0,WeatherDisplay:10.37,2013-11-08 20:15:00,
2013-11-08 15:21:00,48.0,33.9,30.28,SW,215,6.0,6.0,58,0.00,FEW,,0.00,332.0,WeatherDisplay:10.37,2013-11-08 20:21:00,
2013-11-08 15:26:00,48.3,34.2,30.28,SW,224,6.9,6.9,58,0.00,CLR,,0.00,279.0,WeatherDisplay:10.37,2013-11-08 20:26:00,
2013-11-08 15:30:00,48.3,34.2,30.28,SW,221,7.0,9.0,58,0.00,CLR,,0.00,313.0,WeatherDisplay:10.37,2013-11-08 20:30:00,
2013-11-08 15:35:00,48.3,32.9,30.28,SW,215,6.0,9.0,55,0.00,CLR,,0.00,283.0,WeatherDisplay:10.37,2013-11-08 20:35:00,
2013-11-08 15:40:00,48.3,32.9,30.28,SSW,213,7.0,10.0,55,0.00,CLR,,0.00,264.0,WeatherDisplay:10.37,2013-11-08 20:40:00,
2013-11-08 15:45:00,48.6,33.1,30.28,SSW,210,8.0,12.0,55,0.00,CLR,,0.00,199.0,WeatherDisplay:10.37,2013-11-08 20:45:00,
2013-11-08 15:51:00,48.3,32.4,30.28,SSW,208,9.2,9.2,54,0.00,CLR,,0.00,227.0,WeatherDisplay:10.37,2013-11-08 20:51:00,
2013-11-08 15:55:00,48.2,32.3,30.28,SW,214,6.0,8.0,54,0.00,CLR,,0.00,197.0,WeatherDisplay:10.37,2013-11-08 20:55:00,
2013-11-08 16:00:00,48.2,32.8,30.28,SSW,211,7.0,9.0,55,0.00,CLR,,0.00,185.0,WeatherDisplay:10.37,2013-11-08 21:00:00,
2013-11-08 16:05:00,47.9,32.5,30.28,SSW,208,6.0,12.0,55,0.00,CLR,,0.00,181.0,WeatherDisplay:10.37,2013-11-08 21:05:00,
2013-11-08 16:11:00,48.1,32.7,30.27,SW,217,10.4,10.4,55,0.00,CLR,,0.00,174.0,WeatherDisplay:10.37,2013-11-08 21:11:00,
2013-11-08 16:15:00,48.2,32.7,30.27,SW,221,6.0,8.0,55,0.00,CLR,,0.00,169.0,WeatherDisplay:10.37,2013-11-08 21:15:00,
2013-11-08 16:20:00,48.3,32.0,30.27,SW,224,7.0,9.0,53,0.00,CLR,,0.00,142.0,WeatherDisplay:10.37,2013-11-08 21:20:00,
2013-11-08 16:25:00,48.3,32.9,30.26,SW,215,6.0,10.0,55,0.00,CLR,,0.00,123.0,WeatherDisplay:10.37,2013-11-08 21:25:00,
2013-11-08 16:30:00,48.1,33.2,30.26,SSW,212,7.0,10.0,56,0.00,FEW,,0.00,79.0,WeatherDisplay:10.37,2013-11-08 21:30:00,
2013-11-08 16:35:00,47.8,32.9,30.26,SSW,208,6.0,10.0,56,0.00,SCT,,0.00,67.0,WeatherDisplay:10.37,2013-11-08 21:35:00,
2013-11-08 16:41:00,47.5,33.9,30.26,SW,224,5.0,5.0,59,0.00,BKN,,0.00,51.0,WeatherDisplay:10.37,2013-11-08 21:41:00,
2013-11-08 16:45:00,47.2,33.2,30.26,SW,216,3.0,6.0,58,0.00,BKN,,0.00,35.0,WeatherDisplay:10.37,2013-11-08 21:45:00,
2013-11-08 16:51:00,46.8,32.8,30.26,SW,216,3.0,5.0,58,0.00,BKN,,0.00,23.0,WeatherDisplay:10.37,2013-11-08 21:51:00,
2013-11-08 16:56:00,46.2,33.5,30.26,SW,217,4.0,4.0,61,0.00,BKN,,0.00,21.0,WeatherDisplay:10.37,2013-11-08 21:56:00,
2013-11-08 17:01:00,45.7,33.4,30.26,SSW,204,3.5,3.5,62,0.00,BKN,,0.00,19.0,WeatherDisplay:10.37,2013-11-08 22:01:00,
2013-11-08 17:06:00,45.2,33.3,30.26,SSW,206,3.5,3.5,63,0.00,BKN,,0.00,14.0,WeatherDisplay:10.37,2013-11-08 22:06:00,
2013-11-08 17:10:00,44.7,33.3,30.26,SW,217,2.0,4.0,64,0.00,BKN,,0.00,11.0,WeatherDisplay:10.37,2013-11-08 22:10:00,
2013-11-08 17:15:00,44.2,33.1,30.26,SW,220,3.0,4.0,65,0.00,BKN,,0.00,7.0,WeatherDisplay:10.37,2013-11-08 22:15:00,
2013-11-08 17:20:00,43.7,33.1,30.26,SSW,210,1.0,4.0,66,0.00,BKN,,0.00,5.0,WeatherDisplay:10.37,2013-11-08 22:20:00,
2013-11-08 17:25:00,43.4,33.2,30.26,SSW,208,2.0,3.0,67,0.00,,,0.00,0.0,WeatherDisplay:10.37,2013-11-08 22:25:00,
2013-11-08 17:30:00,43.1,33.3,30.26,SSW,208,1.0,2.0,68,0.00,,,0.00,0.0,WeatherDisplay:10.37,2013-11-08 22:30:00,
2013-11-08 17:35:00,42.7,33.6,30.26,SSW,208,2.0,3.0,70,0.00,,,0.00,0.0,WeatherDisplay:10.37,2013-11-08 22:35:00,
2013-11-08 17:41:00,42.2,33.5,30.26,SSW,207,1.2,1.2,71,0.00,,,0.00,0.0,WeatherDisplay:10.37,2013-11-08 22:41:00,
2013-11-08 17:45:00,42.0,33.3,30.26,SSW,207,2.0,2.0,71,0.00,,,0.00,0.0,WeatherDisplay:10.37,2013-11-08 22:45:00,
2013-11-08 17:50:00,41.7,33.3,30.26,SSW,207,0.0,3.0,72,0.00,,,0.00,0.0,WeatherDisplay:10.37,2013-11-08 22:50:00,
2013-11-08 17:55:00,41.4,33.4,30.26,SW,220,1.0,3.0,73,0.00,,,0.00,0.0,WeatherDisplay:10.37,2013-11-08 22:55:00,
2013-11-08 18:00:00,41.0,33.4,30.26,SW,229,1.0,2.0,74,0.00,,,0.00,0.0,WeatherDisplay:10.37,2013-11-08 23:00:00,
2013-11-08 18:05:00,40.7,33.1,30.26,SW,229,1.0,2.0,74,0.00,,,0.00,0.0,WeatherDisplay:10.37,2013-11-08 23:05:00,
2013-11-08 18:11:00,40.7,33.7,30.26,SW,226,1.0,3.0,76,0.00,,,0.00,0.0,WeatherDisplay:10.37,2013-11-08 23:11:00,
2013-11-08 18:15:00,40.7,33.7,30.26,SW,217,1.0,3.0,76,0.00,,,0.00,0.0,WeatherDisplay:10.37,2013-11-08 23:15:00,
2013-11-08 18:21:00,40.7,34.0,30.26,SSW,211,3.5,3.5,77,0.00,,,0.00,0.0,WeatherDisplay:10.37,2013-11-08 23:21:00,
2013-11-08 18:25:00,40.9,34.3,30.26,SSW,210,2.0,3.0,77,0.00,,,0.00,0.0,WeatherDisplay:10.37,2013-11-08 23:25:00,
2013-11-08 18:30:00,41.1,34.4,30.26,SSW,209,1.0,3.0,77,0.00,,,0.00,0.0,WeatherDisplay:10.37,2013-11-08 23:30:00,
2013-11-08 18:35:00,41.3,34.6,30.25,SSW,200,3.0,4.0,77,0.00,,,0.00,0.0,WeatherDisplay:10.37,2013-11-08 23:35:00,
2013-11-08 18:41:00,41.9,34.9,30.25,South,180,4.6,4.6,76,0.00,,,0.00,0.0,WeatherDisplay:10.37,2013-11-08 23:41:00,
2013-11-08 18:45:00,42.2,35.2,30.25,South,180,2.0,5.0,76,0.00,,,0.00,0.0,WeatherDisplay:10.37,2013-11-08 23:45:00,
2013-11-08 18:51:00,42.2,34.8,30.25,South,178,4.6,4.6,75,0.00,,,0.00,0.0,WeatherDisplay:10.37,2013-11-08 23:51:00,
2013-11-08 18:56:00,42.4,35.0,30.25,South,173,4.6,4.6,75,0.00,,,0.00,0.0,WeatherDisplay:10.37,2013-11-08 23:56:00,
2013-11-08 19:01:00,42.4,35.0,30.25,South,179,3.0,5.0,75,0.00,,,0.00,0.0,WeatherDisplay:10.37,2013-11-09 00:01:00,
2013-11-08 19:05:00,42.5,35.1,30.24,South,180,3.0,5.0,75,0.00,,,0.00,0.0,WeatherDisplay:10.37,2013-11-09 00:05:00,
2013-11-08 19:11:00,42.5,34.8,30.24,South,175,3.0,6.0,74,0.00,,,0.00,0.0,WeatherDisplay:10.37,2013-11-09 00:11:00,
2013-11-08 19:15:00,42.6,34.6,30.24,SSE,167,5.0,7.0,73,0.00,,,0.00,0.0,WeatherDisplay:10.37,2013-11-09 00:15:00,
2013-11-08 19:21:00,42.8,34.4,30.24,SSE,163,5.8,5.8,72,0.00,,,0.00,0.0,WeatherDisplay:10.37,2013-11-09 00:21:00,
2013-11-08 19:25:00,43.0,34.2,30.24,South,170,3.0,9.0,71,0.00,,,0.00,0.0,WeatherDisplay:10.37,2013-11-09 00:25:00,
2013-11-08 19:31:00,42.9,34.1,30.23,South,174,5.8,5.8,71,0.00,,,0.00,0.0,WeatherDisplay:10.37,2013-11-09 00:31:00,
2013-11-08 19:35:00,42.9,34.1,30.23,South,173,3.0,6.0,71,0.00,,,0.00,0.0,WeatherDisplay:10.37,2013-11-09 00:35:00,
2013-11-08 19:40:00,42.7,34.3,30.24,South,176,3.0,6.0,72,0.00,,,0.00,0.0,WeatherDisplay:10.37,2013-11-09 00:40:00,
2013-11-08 19:45:00,42.4,34.1,30.24,South,175,5.0,6.0,72,0.00,,,0.00,0.0,WeatherDisplay:10.37,2013-11-09 00:45:00,
2013-11-08 19:51:00,42.4,33.7,30.23,SSE,157,6.9,6.9,71,0.00,,,0.00,0.0,WeatherDisplay:10.37,2013-11-09 00:51:00,
2013-11-08 19:55:00,42.7,33.6,30.24,SSE,157,1.0,6.0,70,0.00,,,0.00,0.0,WeatherDisplay:10.37,2013-11-09 00:55:00,
2013-11-08 20:00:00,42.8,33.3,30.23,SSE,147,5.0,7.0,69,0.00,,,0.00,0.0,WeatherDisplay:10.37,2013-11-09 01:00:00,
2013-11-08 20:05:00,42.8,33.7,30.23,SSE,148,7.0,9.0,70,0.00,,,0.00,0.0,WeatherDisplay:10.37,2013-11-09 01:05:00,
2013-11-08 20:11:00,42.7,33.6,30.23,South,175,8.1,8.1,70,0.00,,,0.00,0.0,WeatherDisplay:10.37,2013-11-09 01:11:00,
2013-11-08 20:16:00,42.5,33.4,30.23,South,173,8.1,8.1,70,0.00,,,0.00,0.0,WeatherDisplay:10.37,2013-11-09 01:16:00,
2013-11-08 20:21:00,42.4,33.7,30.22,SSE,163,8.1,8.1,71,0.00,,,0.00,0.0,WeatherDisplay:10.37,2013-11-09 01:21:00,
2013-11-08 20:25:00,42.4,33.3,30.22,SSE,164,7.0,10.0,70,0.00,,,0.00,0.0,WeatherDisplay:10.37,2013-11-09 01:25:00,
2013-11-08 20:31:00,42.3,33.2,30.22,SSE,168,6.9,6.9,70,0.00,,,0.00,0.0,WeatherDisplay:10.37,2013-11-09 01:31:00,
2013-11-08 20:35:00,42.2,33.1,30.22,SSE,166,8.0,9.0,70,0.00,,,0.00,0.0,WeatherDisplay:10.37,2013-11-09 01:35:00,
2013-11-08 20:41:00,42.1,33.4,30.21,SSE,163,9.2,9.2,71,0.00,,,0.00,0.0,WeatherDisplay:10.37,2013-11-09 01:41:00,
2013-11-08 20:46:00,42.0,33.3,30.21,South,175,8.1,8.1,71,0.00,,,0.00,0.0,WeatherDisplay:10.37,2013-11-09 01:46:00,
2013-11-08 20:51:00,41.9,33.5,30.21,South,177,6.0,10.0,72,0.00,,,0.00,0.0,WeatherDisplay:10.37,2013-11-09 01:51:00,
2013-11-08 20:56:00,41.9,33.5,30.21,SSE,165,10.4,10.4,72,0.00,,,0.00,0.0,WeatherDisplay:10.37,2013-11-09 01:56:00,
2013-11-08 21:01:00,42.1,33.0,30.21,South,178,11.5,11.5,70,0.00,,,0.00,0.0,WeatherDisplay:10.37,2013-11-09 02:01:00,
2013-11-08 21:06:00,42.5,32.7,30.21,South,169,11.5,11.5,68,0.00,,,0.00,0.0,WeatherDisplay:10.37,2013-11-09 02:06:00,
2013-11-08 21:11:00,42.7,32.5,30.20,SSE,167,15.0,15.0,67,0.00,,,0.00,0.0,WeatherDisplay:10.37,2013-11-09 02:11:00,
2013-11-08 21:16:00,42.8,33.0,30.20,SSE,164,10.4,10.4,68,0.00,,,0.00,0.0,WeatherDisplay:10.37,2013-11-09 02:16:00,
2013-11-08 21:21:00,42.8,33.0,30.20,South,169,11.5,11.5,68,0.00,,,0.00,0.0,WeatherDisplay:10.37,2013-11-09 02:21:00,
2013-11-08 21:26:00,42.7,33.2,30.20,South,186,10.4,10.4,69,0.00,,,0.00,0.0,WeatherDisplay:10.37,2013-11-09 02:26:00,
2013-11-08 21:31:00,42.5,33.0,30.20,South,171,10.0,10.0,69,0.00,,,0.00,0.0,WeatherDisplay:10.37,2013-11-09 02:31:00,
2013-11-08 21:36:00,42.5,33.0,30.20,South,177,8.1,8.1,69,0.00,,,0.00,0.0,WeatherDisplay:10.37,2013-11-09 02:36:00,
2013-11-08 21:41:00,42.4,33.3,30.21,South,189,9.2,9.2,70,0.00,,,0.00,0.0,WeatherDisplay:10.37,2013-11-09 02:41:00,
2013-11-08 21:46:00,42.3,33.2,30.21,South,189,10.4,10.4,70,0.00,,,0.00,0.0,WeatherDisplay:10.37,2013-11-09 02:46:00,
2013-11-08 21:51:00,42.2,33.5,30.21,South,184,9.2,9.2,71,0.00,,,0.00,0.0,WeatherDisplay:10.37,2013-11-09 02:51:00,
2013-11-08 21:56:00,42.0,33.3,30.21,SSW,193,9.2,9.2,71,0.00,,,0.00,0.0,WeatherDisplay:10.37,2013-11-09 02:56:00,
2013-11-08 22:01:00,41.8,33.4,30.22,South,182,9.2,9.2,72,0.00,,,0.00,0.0,WeatherDisplay:10.37,2013-11-09 03:01:00,
2013-11-08 22:06:00,41.8,33.4,30.22,South,171,9.2,9.2,72,0.00,,,0.00,0.0,WeatherDisplay:10.37,2013-11-09 03:06:00,
2013-11-08 22:11:00,41.6,33.2,30.21,South,173,9.2,9.2,72,0.00,,,0.00,0.0,WeatherDisplay:10.37,2013-11-09 03:11:00,
2013-11-08 22:16:00,41.5,33.5,30.21,South,173,10.0,10.0,73,0.00,,,0.00,0.0,WeatherDisplay:10.37,2013-11-09 03:16:00,
2013-11-08 22:21:00,41.6,33.6,30.21,South,169,11.5,11.5,73,0.00,,,0.00,0.0,WeatherDisplay:10.37,2013-11-09 03:21:00,
2013-11-08 22:26:00,41.5,33.5,30.21,South,185,7.0,7.0,73,0.00,,,0.00,0.0,WeatherDisplay:10.37,2013-11-09 03:26:00,
2013-11-08 22:31:00,41.3,33.3,30.21,South,178,7.0,7.3,73,0.00,,,0.00,0.0,WeatherDisplay:10.37,2013-11-09 03:31:00,
2013-11-08 22:36:00,41.3,33.6,30.21,South,183,6.9,6.9,74,0.00,,,0.00,0.0,WeatherDisplay:10.37,2013-11-09 03:36:00,
2013-11-08 22:41:00,41.2,33.5,30.21,South,191,10.4,10.4,74,0.00,,,0.00,0.0,WeatherDisplay:10.37,2013-11-09 03:41:00,
2013-11-08 22:46:00,41.1,33.8,30.20,SSE,165,7.0,7.0,75,0.00,,,0.00,0.0,WeatherDisplay:10.37,2013-11-09 03:46:00,
2013-11-08 22:51:00,41.1,33.8,30.20,South,191,9.2,9.2,75,0.00,,,0.00,0.0,WeatherDisplay:10.37,2013-11-09 03:51:00,
2013-11-08 22:56:00,41.2,33.5,30.20,SSE,157,10.4,10.4,74,0.00,,,0.00,0.0,WeatherDisplay:10.37,2013-11-09 03:56:00,
2013-11-08 23:01:00,41.3,33.6,30.20,South,175,8.1,8.1,74,0.00,,,0.00,0.0,WeatherDisplay:10.37,2013-11-09 04:01:00,
2013-11-08 23:06:00,41.3,34.0,30.19,SSE,168,7.0,7.0,75,0.00,,,0.00,0.0,WeatherDisplay:10.37,2013-11-09 04:06:00,
2013-11-08 23:11:00,41.3,33.6,30.18,South,182,10.4,10.4,74,0.00,,,0.00,0.0,WeatherDisplay:10.37,2013-11-09 04:11:00,
2013-11-08 23:16:00,41.3,33.6,30.18,SSE,160,11.5,11.5,74,0.00,,,0.00,0.0,WeatherDisplay:10.37,2013-11-09 04:16:00,
2013-11-08 23:21:00,41.4,33.7,30.18,South,188,11.5,11.5,74,0.00,,,0.00,0.0,WeatherDisplay:10.37,2013-11-09 04:21:00,
2013-11-08 23:26:00,41.5,33.8,30.18,South,173,11.5,11.5,74,0.00,,,0.00,0.0,WeatherDisplay:10.37,2013-11-09 04:26:00,
2013-11-08 23:31:00,41.6,33.6,30.18,SSE,167,11.5,11.5,73,0.00,,,0.00,0.0,WeatherDisplay:10.37,2013-11-09 04:31:00,
2013-11-08 23:36:00,41.6,33.6,30.18,South,179,10.4,10.4,73,0.00,,,0.00,0.0,WeatherDisplay:10.37,2013-11-09 04:36:00,
2013-11-08 23:41:00,41.7,33.7,30.19,South,176,11.5,11.5,73,0.00,,,0.00,0.0,WeatherDisplay:10.37,2013-11-09 04:41:00,
2013-11-08 23:46:00,41.8,33.4,30.18,South,190,9.2,9.2,72,0.00,,,0.00,0.0,WeatherDisplay:10.37,2013-11-09 04:46:00,
2013-11-08 23:51:00,41.8,33.4,30.18,South,187,11.5,11.5,72,0.00,,,0.00,0.0,WeatherDisplay:10.37,2013-11-09 04:51:00,
2013-11-08 23:56:00,41.8,33.4,30.18,SSE,168,10.4,10.4,72,0.00,,,0.00,0.0,WeatherDisplay:10.37,2013-11-09 04:56:00,